Time;durP1;ratioP1;P1;durP2;ratioP2;P2;SDS_P1;SDS_P2;PMS_P1;PMS_P2;Temp;Humidity;BMP_temperature;BMP_pressure;BME280_temperature;BME280_humidity;BME280_pressure;Samples;Min_cycle;Max_cycle;Signal;HPM_P1;HPM_P2
2022/06/18 00:00:44;;;;;;;;;;;23.50;65.50;;;;;;4976628;28;19964;-96
2022/06/18 00:03:10;;;;;;;;;;;23.50;65.20;;;;;;4976770;28;20036;-95
2022/06/18 00:05:36;;;;;;;;;;;23.60;64.90;;;;;;4976386;28;20396;-96
2022/06/18 00:08:04;;;;;;;;;;;23.70;67.20;;;;;;4976506;28;19945;-96
2022/06/18 00:10:30;;;;;;;;;;;23.70;66.80;;;;;;4976083;28;19952;-96
2022/06/18 00:16:08;;;;;;;;;;;23.70;66.40;;;;;;4916915;29;20033;-95
2022/06/18 00:18:33;;;;;;;;;;;23.50;69.00;;;;;;4900853;29;20058;-96
2022/06/18 00:21:00;;;;;;;;;;;23.50;71.50;;;;;;4945270;28;20460;-96
2022/06/18 00:23:26;;;;;;;;;;;23.50;69.30;;;;;;4976336;28;19943;-95
2022/06/18 00:25:52;;;;;;;;;;;23.40;68.80;;;;;;4976053;28;20453;-96
2022/06/18 00:28:19;;;;;;;;;;;23.30;69.90;;;;;;4976508;28;19954;-96
2022/06/18 00:30:45;;;;;;;;;;;23.30;70.20;;;;;;4976161;28;19946;-95
2022/06/18 00:33:11;;;;;;;;;;;23.20;72.30;;;;;;4976449;28;19968;-96
2022/06/18 00:35:37;;;;;;;;;;;23.10;70.10;;;;;;4976115;28;20391;-95
2022/06/18 00:38:04;;;;;;;;;;;23.10;70.10;;;;;;4975934;28;19957;-95
2022/06/18 00:40:31;;;;;;;;;;;23.00;70.60;;;;;;4975680;28;20317;-96
2022/06/18 00:42:59;;;;;;;;;;;22.90;72.10;;;;;;4958290;28;19952;-95
2022/06/18 00:45:26;;;;;;;;;;;22.80;71.50;;;;;;4975756;28;20386;-96
2022/06/18 00:47:54;;;;;;;;;;;22.80;72.00;;;;;;4975783;28;19946;-96
2022/06/18 00:50:32;;;;;;;;;;;22.60;72.70;;;;;;4975780;28;19941;-96
2022/06/18 00:53:24;;;;;;;;;;;22.50;73.20;;;;;;4975970;28;19943;-96
2022/06/18 00:56:13;;;;;;;;;;;22.30;72.40;;;;;;4970697;28;19990;-95
2022/06/18 00:58:41;;;;;;;;;;;22.30;74.10;;;;;;4962343;28;19991;-96
2022/06/18 01:01:21;;;;;;;;;;;22.20;74.10;;;;;;4976048;28;19947;-96
2022/06/18 01:03:47;;;;;;;;;;;22.10;74.80;;;;;;4975375;28;19947;-96
2022/06/18 01:06:19;;;;;;;;;;;22.10;74.70;;;;;;4975552;28;19944;-96
2022/06/18 01:08:45;;;;;;;;;;;22.00;74.90;;;;;;4975374;28;19942;-96
2022/06/18 01:11:16;;;;;;;;;;;22.00;75.70;;;;;;4975869;28;20374;-96
2022/06/18 01:13:42;;;;;;;;;;;21.80;76.80;;;;;;4975372;28;19944;-96
2022/06/18 01:16:08;;;;;;;;;;;21.80;76.80;;;;;;4975671;28;19951;-96
2022/06/18 01:18:34;;;;;;;;;;;21.80;76.40;;;;;;4975161;28;19981;-96
2022/06/18 01:21:15;;;;;;;;;;;21.70;76.50;;;;;;4975637;28;19937;-96
2022/06/18 01:23:44;;;;;;;;;;;21.60;76.90;;;;;;4958257;28;19985;-96
2022/06/18 01:26:10;;;;;;;;;;;21.50;77.80;;;;;;4975368;28;19977;-96
2022/06/18 01:28:36;;;;;;;;;;;21.50;77.90;;;;;;4975390;28;19937;-96
2022/06/18 01:31:02;;;;;;;;;;;21.60;77.40;;;;;;4975301;28;19943;-96
2022/06/18 01:33:28;;;;;;;;;;;21.60;76.60;;;;;;4975560;28;20306;-96
2022/06/18 01:35:54;;;;;;;;;;;21.60;76.40;;;;;;4975168;28;19951;-96
2022/06/18 01:38:20;;;;;;;;;;;21.70;76.70;;;;;;4975750;28;19962;-96
2022/06/18 01:40:49;;;;;;;;;;;21.60;77.30;;;;;;4975262;28;19940;-96
2022/06/18 01:43:16;;;;;;;;;;;21.60;77.90;;;;;;4975654;28;19941;-96
2022/06/18 01:45:43;;;;;;;;;;;21.60;77.20;;;;;;4975599;28;19944;-96
2022/06/18 01:48:14;;;;;;;;;;;21.50;77.50;;;;;;4975174;28;19940;-96
2022/06/18 01:50:44;;;;;;;;;;;21.50;76.80;;;;;;4957708;28;19994;-95
2022/06/18 01:53:21;;;;;;;;;;;21.50;75.50;;;;;;4975735;28;19954;-96
2022/06/18 01:55:50;;;;;;;;;;;21.50;75.40;;;;;;4975015;28;19979;-96
2022/06/18 01:58:19;;;;;;;;;;;21.60;76.80;;;;;;4975186;28;19964;-96
2022/06/18 02:00:45;;;;;;;;;;;21.60;76.40;;;;;;4957597;28;19962;-96
2022/06/18 02:03:11;;;;;;;;;;;21.70;76.10;;;;;;4975285;28;19950;-96
2022/06/18 02:05:37;;;;;;;;;;;21.80;76.20;;;;;;4974899;28;20307;-96
2022/06/18 02:08:04;;;;;;;;;;;21.80;75.30;;;;;;4975023;28;20457;-95
2022/06/18 02:10:36;;;;;;;;;;;21.80;75.80;;;;;;4974689;28;19945;-95
2022/06/18 02:13:03;;;;;;;;;;;21.80;76.70;;;;;;4975207;28;19945;-96
2022/06/18 02:15:31;;;;;;;;;;;21.60;77.10;;;;;;4974982;28;20402;-95
2022/06/18 02:17:59;;;;;;;;;;;21.60;77.00;;;;;;4974910;28;19951;-96
2022/06/18 02:20:27;;;;;;;;;;;21.60;76.70;;;;;;4957311;28;19952;-96
2022/06/18 02:22:54;;;;;;;;;;;21.60;76.90;;;;;;4975240;28;19977;-96
2022/06/18 02:25:23;;;;;;;;;;;21.50;77.80;;;;;;4974796;28;19953;-95
2022/06/18 02:27:50;;;;;;;;;;;21.50;79.00;;;;;;4974869;28;19959;-96
2022/06/18 02:30:18;;;;;;;;;;;21.40;78.70;;;;;;4974502;28;19984;-96
2022/06/18 02:33:04;;;;;;;;;;;21.30;78.60;;;;;;4975409;28;19947;-96
2022/06/18 02:35:32;;;;;;;;;;;21.30;78.80;;;;;;4978500;28;19995;-96
2022/06/18 02:37:58;;;;;;;;;;;21.30;78.80;;;;;;4977844;28;19963;-96
2022/06/18 02:40:25;;;;;;;;;;;21.30;79.40;;;;;;4978418;28;20393;-95
2022/06/18 02:42:52;;;;;;;;;;;21.30;79.50;;;;;;4978086;28;19949;-96
2022/06/18 02:45:19;;;;;;;;;;;21.10;80.20;;;;;;4960368;28;19950;-96
2022/06/18 02:47:48;;;;;;;;;;;21.00;80.80;;;;;;4978340;28;19943;-96
2022/06/18 02:50:16;;;;;;;;;;;21.00;80.50;;;;;;4977682;28;20034;-96
2022/06/18 02:52:47;;;;;;;;;;;20.80;80.20;;;;;;4978197;28;19948;-95
2022/06/18 02:55:19;;;;;;;;;;;20.60;81.10;;;;;;4977556;28;19979;-96
2022/06/18 02:57:46;;;;;;;;;;;20.50;81.50;;;;;;4978058;28;19965;-96
2022/06/18 03:00:13;;;;;;;;;;;20.40;82.10;;;;;;4977815;28;19950;-95
2022/06/18 03:02:39;;;;;;;;;;;20.40;82.60;;;;;;4960039;28;19999;-96
2022/06/18 03:05:05;;;;;;;;;;;20.40;82.00;;;;;;4977966;28;19948;-95
2022/06/18 03:07:30;;;;;;;;;;;20.40;81.80;;;;;;4977374;28;20013;-95
2022/06/18 03:12:40;;;;;;;;;;;20.50;81.40;;;;;;4977899;28;19952;-96
2022/06/18 03:15:06;;;;;;;;;;;20.60;81.00;;;;;;4977827;28;19939;-96
2022/06/18 03:17:31;;;;;;;;;;;20.70;80.30;;;;;;4959737;28;19974;-95
2022/06/18 03:20:01;;;;;;;;;;;20.80;81.00;;;;;;4977410;28;19947;-95
2022/06/18 03:22:27;;;;;;;;;;;20.80;81.10;;;;;;4977084;28;19998;-96
2022/06/18 03:24:52;;;;;;;;;;;20.70;81.30;;;;;;4977563;28;20031;-96
2022/06/18 03:27:18;;;;;;;;;;;20.80;81.60;;;;;;4976964;28;19943;-95
2022/06/18 03:29:46;;;;;;;;;;;20.80;81.60;;;;;;4977230;28;19945;-95
2022/06/18 03:32:12;;;;;;;;;;;20.80;81.50;;;;;;4976912;28;20319;-96
2022/06/18 03:34:37;;;;;;;;;;;20.80;81.20;;;;;;4959583;28;19938;-95
2022/06/18 03:37:03;;;;;;;;;;;20.60;81.30;;;;;;4977063;28;20329;-94
2022/06/18 03:39:28;;;;;;;;;;;20.60;81.70;;;;;;4976742;28;19940;-96
2022/06/18 03:41:54;;;;;;;;;;;20.50;81.50;;;;;;4977039;28;20040;-96
2022/06/18 03:44:20;;;;;;;;;;;20.40;81.60;;;;;;4976310;28;19942;-96
2022/06/18 03:46:46;;;;;;;;;;;20.30;81.90;;;;;;4976975;28;20343;-95
2022/06/18 03:49:22;;;;;;;;;;;20.30;82.20;;;;;;4976851;28;20403;-96
2022/06/18 03:51:48;;;;;;;;;;;20.30;82.20;;;;;;4959793;28;20298;-94
2022/06/18 03:54:13;;;;;;;;;;;20.40;82.70;;;;;;4976400;28;19981;-96
2022/06/18 03:56:39;;;;;;;;;;;20.50;82.50;;;;;;4976411;28;20033;-96
2022/06/18 03:59:04;;;;;;;;;;;20.60;82.30;;;;;;4976690;28;19945;-96
2022/06/18 04:01:31;;;;;;;;;;;20.70;82.10;;;;;;4976615;28;19946;-95
2022/06/18 04:03:57;;;;;;;;;;;20.80;81.60;;;;;;4976580;28;19939;-96
2022/06/18 04:06:23;;;;;;;;;;;20.80;80.30;;;;;;4976565;28;20384;-96
2022/06/18 04:08:49;;;;;;;;;;;20.80;80.30;;;;;;4976745;28;19937;-96
2022/06/18 04:11:15;;;;;;;;;;;20.90;80.50;;;;;;4976487;28;20416;-96
2022/06/18 04:13:40;;;;;;;;;;;21.00;80.70;;;;;;4958786;28;19951;-96
2022/06/18 04:16:06;;;;;;;;;;;21.10;80.40;;;;;;4976351;28;20415;-96
2022/06/18 04:18:32;;;;;;;;;;;21.30;80.30;;;;;;4958601;28;19969;-96
2022/06/18 04:20:58;;;;;;;;;;;21.40;80.50;;;;;;4976290;28;19970;-96
2022/06/18 04:23:23;;;;;;;;;;;21.50;80.60;;;;;;4975946;28;20395;-96
2022/06/18 04:25:49;;;;;;;;;;;21.50;80.60;;;;;;4975988;28;20079;-96
2022/06/18 04:28:15;;;;;;;;;;;21.60;77.50;;;;;;4976111;28;19992;-96
2022/06/18 04:30:41;;;;;;;;;;;21.80;75.20;;;;;;4958432;28;19953;-96
2022/06/18 04:33:07;;;;;;;;;;;22.00;74.60;;;;;;4976353;28;20340;-96
2022/06/18 04:35:33;;;;;;;;;;;22.30;73.30;;;;;;4975784;28;19949;-96
2022/06/18 04:37:58;;;;;;;;;;;22.40;72.90;;;;;;4975913;28;19958;-95
2022/06/18 04:40:31;;;;;;;;;;;22.50;72.10;;;;;;4975660;28;19971;-96
2022/06/18 04:42:58;;;;;;;;;;;22.70;71.50;;;;;;4975883;28;20407;-96
2022/06/18 04:45:23;;;;;;;;;;;22.80;71.50;;;;;;4958325;28;20046;-96
2022/06/18 04:47:49;;;;;;;;;;;22.80;71.20;;;;;;4976080;28;19989;-96
2022/06/18 04:50:16;;;;;;;;;;;22.90;70.80;;;;;;4975738;28;19951;-96
2022/06/18 04:52:41;;;;;;;;;;;23.00;70.30;;;;;;4976024;28;20388;-96
2022/06/18 04:55:07;;;;;;;;;;;23.10;70.00;;;;;;4974483;28;20138;-96
2022/06/18 04:57:33;;;;;;;;;;;23.20;69.00;;;;;;4975830;28;19961;-96
2022/06/18 04:59:59;;;;;;;;;;;23.30;68.30;;;;;;4975396;28;19947;-96
2022/06/18 05:02:29;;;;;;;;;;;23.30;68.20;;;;;;4975852;28;19943;-96
2022/06/18 05:04:55;;;;;;;;;;;23.30;68.10;;;;;;4957904;28;20107;-96
2022/06/18 05:07:21;;;;;;;;;;;23.50;67.80;;;;;;4975844;28;20376;-95
2022/06/18 05:09:48;;;;;;;;;;;23.50;67.40;;;;;;4975268;28;19950;-95
2022/06/18 05:12:14;;;;;;;;;;;23.60;66.80;;;;;;4975491;28;19947;-96
2022/06/18 05:14:39;;;;;;;;;;;23.70;66.20;;;;;;4975225;28;20010;-95
2022/06/18 05:17:09;;;;;;;;;;;23.80;66.70;;;;;;4975649;28;20008;-96
2022/06/18 05:19:34;;;;;;;;;;;23.80;65.60;;;;;;4975435;28;19950;-96
2022/06/18 05:22:01;;;;;;;;;;;23.90;65.10;;;;;;4975395;28;20301;-96
2022/06/18 05:24:27;;;;;;;;;;;24.00;65.20;;;;;;4975170;28;19941;-96
2022/06/18 05:26:54;;;;;;;;;;;24.10;64.60;;;;;;4975669;28;19958;-95
2022/06/18 05:29:20;;;;;;;;;;;24.10;64.30;;;;;;4975418;28;19955;-96
2022/06/18 05:31:46;;;;;;;;;;;24.10;64.00;;;;;;4975307;28;19946;-96
2022/06/18 05:34:11;;;;;;;;;;;24.20;64.30;;;;;;4975307;28;19937;-96
2022/06/18 05:36:37;;;;;;;;;;;24.20;63.70;;;;;;4975297;28;19949;-95
2022/06/18 05:39:03;;;;;;;;;;;24.20;63.40;;;;;;4975012;28;19966;-96
2022/06/18 05:41:30;;;;;;;;;;;24.20;63.20;;;;;;4976443;28;19947;-96
2022/06/18 05:43:56;;;;;;;;;;;24.30;62.90;;;;;;4975962;28;19948;-96
2022/06/18 05:46:22;;;;;;;;;;;24.30;62.90;;;;;;4977334;28;19943;-95
2022/06/18 05:48:47;;;;;;;;;;;24.40;62.40;;;;;;4960051;28;20043;-96
2022/06/18 05:51:13;;;;;;;;;;;24.50;61.60;;;;;;4976680;28;19983;-96
2022/06/18 05:53:39;;;;;;;;;;;24.60;61.20;;;;;;4959005;28;19954;-96
2022/06/18 05:56:04;;;;;;;;;;;24.70;61.10;;;;;;4963939;23;20033;-96
2022/06/18 05:58:30;;;;;;;;;;;24.80;60.50;;;;;;4956698;29;20331;-96
2022/06/18 06:00:56;;;;;;;;;;;24.90;60.10;;;;;;4956735;29;20404;-96
2022/06/18 06:03:22;;;;;;;;;;;25.00;59.30;;;;;;4956273;29;20049;-96
2022/06/18 06:05:47;;;;;;;;;;;25.10;58.90;;;;;;4955930;29;19987;-96
2022/06/18 06:08:13;;;;;;;;;;;25.20;59.00;;;;;;4959195;28;20042;-96
2022/06/18 06:13:24;;;;;;;;;;;25.40;57.40;;;;;;4959779;29;19996;-96
2022/06/18 06:15:50;;;;;;;;;;;25.60;57.40;;;;;;4941906;29;19943;-96
2022/06/18 06:18:16;;;;;;;;;;;25.70;57.30;;;;;;4959628;29;19972;-96
2022/06/18 06:20:44;;;;;;;;;;;25.80;56.70;;;;;;4959156;28;19945;-96
2022/06/18 06:23:10;;;;;;;;;;;25.90;56.40;;;;;;4959486;29;19941;-96
2022/06/18 06:25:36;;;;;;;;;;;26.00;56.40;;;;;;4958761;28;19993;-95
2022/06/18 06:28:03;;;;;;;;;;;26.10;56.00;;;;;;4959563;29;19968;-96
2022/06/18 06:30:28;;;;;;;;;;;26.20;55.80;;;;;;4959133;29;19938;-96
2022/06/18 06:32:54;;;;;;;;;;;26.20;55.80;;;;;;4959259;29;19951;-96
2022/06/18 06:35:19;;;;;;;;;;;26.30;56.30;;;;;;4959329;29;20352;-96
2022/06/18 06:37:45;;;;;;;;;;;26.30;56.20;;;;;;4959160;29;20027;-96
2022/06/18 06:40:13;;;;;;;;;;;26.30;55.80;;;;;;4959371;29;19945;-96
2022/06/18 06:42:43;;;;;;;;;;;26.40;56.80;;;;;;4959059;29;19954;-96
2022/06/18 06:45:22;;;;;;;;;;;26.40;56.60;;;;;;4959126;29;19943;-96
2022/06/18 06:47:48;;;;;;;;;;;26.40;56.70;;;;;;4959094;29;19941;-96
2022/06/18 06:50:15;;;;;;;;;;;26.30;56.90;;;;;;4959006;29;20358;-96
2022/06/18 06:52:41;;;;;;;;;;;26.40;59.00;;;;;;4959067;29;19998;-96
2022/06/18 06:57:57;;;;;;;;;;;26.30;59.40;;;;;;4958582;29;19966;-96
2022/06/18 07:00:23;;;;;;;;;;;26.30;58.40;;;;;;4958842;29;20028;-96
2022/06/18 07:02:48;;;;;;;;;;;26.30;58.20;;;;;;4958516;29;20000;-96
2022/06/18 07:05:14;;;;;;;;;;;26.30;57.90;;;;;;4958491;29;19942;-96
2022/06/18 07:07:40;;;;;;;;;;;26.30;60.00;;;;;;4958736;29;19945;-96
2022/06/18 07:10:06;;;;;;;;;;;26.30;60.40;;;;;;4958362;29;19952;-95
2022/06/18 07:12:31;;;;;;;;;;;26.30;59.70;;;;;;4941107;29;20308;-95
2022/06/18 07:14:57;;;;;;;;;;;26.30;61.90;;;;;;4958491;29;19949;-96
2022/06/18 07:17:22;;;;;;;;;;;26.30;61.80;;;;;;4958086;29;19983;-96
2022/06/18 07:19:48;;;;;;;;;;;26.30;61.30;;;;;;4957566;28;20034;-96
2022/06/18 07:22:13;;;;;;;;;;;26.30;61.30;;;;;;4958163;29;19948;-96
2022/06/18 07:24:40;;;;;;;;;;;26.30;61.70;;;;;;4958326;29;20346;-96
2022/06/18 07:27:05;;;;;;;;;;;26.30;62.00;;;;;;4957941;28;19969;-96
2022/06/18 07:29:31;;;;;;;;;;;26.30;61.50;;;;;;4940633;29;19949;-96
2022/06/18 07:32:07;;;;;;;;;;;26.30;60.90;;;;;;4958074;29;19993;-96
2022/06/18 07:34:33;;;;;;;;;;;26.40;60.00;;;;;;4957765;29;20286;-96
2022/06/18 07:36:58;;;;;;;;;;;26.50;60.00;;;;;;4957990;29;19955;-96
2022/06/18 07:39:24;;;;;;;;;;;26.50;61.80;;;;;;4957648;29;20367;-96
2022/06/18 07:41:53;;;;;;;;;;;26.60;62.10;;;;;;4940922;29;20017;-96
2022/06/18 07:44:18;;;;;;;;;;;26.60;62.40;;;;;;4957512;29;20403;-96
2022/06/18 07:46:45;;;;;;;;;;;26.60;62.40;;;;;;4957673;29;19941;-96
2022/06/18 07:49:11;;;;;;;;;;;26.70;62.70;;;;;;4940303;29;20044;-96
2022/06/18 07:51:37;;;;;;;;;;;26.70;60.80;;;;;;4957993;29;20010;-96
2022/06/18 07:54:03;;;;;;;;;;;26.80;61.60;;;;;;4957324;28;19947;-95
2022/06/18 07:56:29;;;;;;;;;;;26.80;62.70;;;;;;4939969;29;19953;-96
2022/06/18 07:58:55;;;;;;;;;;;26.90;62.10;;;;;;4957299;29;19966;-96
2022/06/18 08:01:20;;;;;;;;;;;27.00;59.90;;;;;;4939919;29;19948;-96
2022/06/18 08:03:46;;;;;;;;;;;27.00;56.00;;;;;;4957367;29;19985;-95
2022/06/18 08:06:11;;;;;;;;;;;26.90;55.40;;;;;;4957009;29;19987;-96
2022/06/18 08:08:37;;;;;;;;;;;26.90;56.20;;;;;;4957258;29;20389;-96
2022/06/18 08:11:06;;;;;;;;;;;27.00;56.80;;;;;;4939735;29;20405;-96
2022/06/18 08:13:31;;;;;;;;;;;27.00;56.90;;;;;;4939676;29;20036;-96
2022/06/18 08:15:57;;;;;;;;;;;27.20;56.60;;;;;;4957095;29;20370;-96
2022/06/18 08:18:22;;;;;;;;;;;27.20;56.70;;;;;;4939502;29;19967;-96
2022/06/18 08:20:48;;;;;;;;;;;27.30;56.30;;;;;;4957479;29;20024;-96
2022/06/18 08:23:13;;;;;;;;;;;27.30;57.20;;;;;;4939488;29;19947;-96
2022/06/18 08:25:40;;;;;;;;;;;27.30;56.70;;;;;;4939313;29;20404;-96
2022/06/18 08:28:07;;;;;;;;;;;27.30;57.00;;;;;;4956971;29;19998;-96
2022/06/18 08:30:33;;;;;;;;;;;27.20;58.00;;;;;;4956678;28;19940;-96
2022/06/18 08:32:58;;;;;;;;;;;27.20;57.80;;;;;;4956650;29;20401;-96
2022/06/18 08:35:24;;;;;;;;;;;27.20;57.10;;;;;;4956536;29;19947;-96
2022/06/18 08:37:50;;;;;;;;;;;27.20;58.20;;;;;;4956900;29;20167;-96
2022/06/18 08:40:37;;;;;;;;;;;27.40;60.10;;;;;;4956718;29;20383;-96
2022/06/18 08:43:21;;;;;;;;;;;27.50;60.00;;;;;;4956737;29;19986;-96
2022/06/18 08:45:56;;;;;;;;;;;27.60;56.80;;;;;;4939210;29;19947;-96
2022/06/18 08:48:35;;;;;;;;;;;27.60;58.30;;;;;;4957474;29;19951;-96
2022/06/18 08:51:11;;;;;;;;;;;27.70;56.70;;;;;;4956394;29;19945;-96
2022/06/18 08:53:46;;;;;;;;;;;27.60;55.00;;;;;;4956238;29;20055;-96
2022/06/18 08:56:20;;;;;;;;;;;27.60;56.50;;;;;;4956091;29;19958;-96
2022/06/18 08:59:11;;;;;;;;;;;27.60;56.50;;;;;;4956410;29;20518;-96
2022/06/18 09:01:39;;;;;;;;;;;27.50;56.90;;;;;;4956092;29;19945;-96
2022/06/18 09:04:11;;;;;;;;;;;27.40;60.90;;;;;;4956618;29;19952;-95
2022/06/18 09:06:48;;;;;;;;;;;27.40;58.20;;;;;;4955944;29;19982;-96
2022/06/18 09:09:32;;;;;;;;;;;27.50;60.70;;;;;;4955793;29;19943;-96
2022/06/18 09:12:05;;;;;;;;;;;27.60;58.80;;;;;;4957603;29;19941;-96
2022/06/18 09:14:30;;;;;;;;;;;27.70;57.20;;;;;;4956983;29;19985;-96
2022/06/18 09:16:56;;;;;;;;;;;27.90;58.40;;;;;;4940025;29;20293;-96
2022/06/18 09:19:23;;;;;;;;;;;27.90;58.30;;;;;;4939702;29;20451;-96
2022/06/18 09:21:52;;;;;;;;;;;28.10;58.00;;;;;;4957329;29;19942;-96
2022/06/18 09:24:31;;;;;;;;;;;28.10;56.40;;;;;;4956911;29;20446;-96
2022/06/18 09:27:20;;;;;;;;;;;28.20;54.50;;;;;;4956840;28;19961;-96
2022/06/18 09:29:48;;;;;;;;;;;28.20;54.90;;;;;;4913782;29;19951;-96
2022/06/18 09:32:24;;;;;;;;;;;28.20;55.10;;;;;;4958957;29;19941;-96
2022/06/18 09:34:57;;;;;;;;;;;28.40;56.50;;;;;;4957056;29;20042;-96
2022/06/18 09:37:34;;;;;;;;;;;28.30;53.30;;;;;;4959087;29;20012;-96
2022/06/18 09:40:00;;;;;;;;;;;28.30;55.50;;;;;;4958111;29;20026;-96
2022/06/18 09:42:32;;;;;;;;;;;28.50;52.50;;;;;;4940745;29;20397;-96
2022/06/18 09:45:01;;;;;;;;;;;28.50;54.80;;;;;;4943260;29;19941;-96
2022/06/18 09:47:53;;;;;;;;;;;28.50;54.30;;;;;;4960166;29;19941;-96
2022/06/18 09:50:32;;;;;;;;;;;28.60;53.80;;;;;;4955234;29;20457;-95
2022/06/18 09:53:02;;;;;;;;;;;28.60;56.60;;;;;;4942165;29;19944;-95
2022/06/18 09:55:39;;;;;;;;;;;28.50;54.50;;;;;;4965439;28;20032;-96
2022/06/18 09:58:07;;;;;;;;;;;28.40;54.90;;;;;;4978920;28;19974;-96
2022/06/18 10:00:33;;;;;;;;;;;28.50;54.20;;;;;;4977370;28;19975;-96
2022/06/18 10:03:10;;;;;;;;;;;28.60;54.20;;;;;;4979386;28;19939;-96
2022/06/18 10:08:31;;;;;;;;;;;28.80;53.70;;;;;;4979103;28;19988;-96
2022/06/18 10:11:07;;;;;;;;;;;28.90;51.60;;;;;;4979108;28;19995;-96
2022/06/18 10:13:35;;;;;;;;;;;29.00;51.40;;;;;;4978782;28;20414;-96
2022/06/18 10:16:02;;;;;;;;;;;29.00;52.10;;;;;;4979053;28;19980;-96
2022/06/18 10:18:28;;;;;;;;;;;29.10;51.80;;;;;;4978120;28;20019;-96
2022/06/18 10:21:08;;;;;;;;;;;29.20;49.90;;;;;;4977035;28;20044;-96
2022/06/18 10:23:35;;;;;;;;;;;29.10;50.70;;;;;;4978569;28;20466;-96
2022/06/18 10:26:07;;;;;;;;;;;29.20;48.40;;;;;;4978216;28;19967;-95
2022/06/18 10:28:33;;;;;;;;;;;29.30;49.90;;;;;;4978364;28;19945;-96
2022/06/18 10:31:09;;;;;;;;;;;29.20;49.00;;;;;;4978019;28;19948;-96
2022/06/18 10:33:50;;;;;;;;;;;29.30;50.10;;;;;;4978920;28;19945;-96
2022/06/18 10:36:15;;;;;;;;;;;29.60;49.40;;;;;;4977936;28;20000;-96
2022/06/18 10:38:57;;;;;;;;;;;29.80;49.40;;;;;;4976599;28;20338;-96
2022/06/18 10:41:27;;;;;;;;;;;30.00;49.50;;;;;;4978182;28;20280;-96
2022/06/18 10:44:06;;;;;;;;;;;30.20;48.80;;;;;;4976597;28;19941;-96
2022/06/18 10:46:31;;;;;;;;;;;30.20;48.40;;;;;;4977858;28;20007;-96
2022/06/18 10:48:59;;;;;;;;;;;30.10;48.60;;;;;;4976490;28;20412;-96
2022/06/18 10:51:26;;;;;;;;;;;30.10;47.20;;;;;;4978350;28;20034;-96
2022/06/18 10:53:53;;;;;;;;;;;30.20;50.70;;;;;;4974801;28;20405;-96
2022/06/18 10:56:21;;;;;;;;;;;30.50;49.50;;;;;;4958229;29;20328;-96
2022/06/18 10:58:52;;;;;;;;;;;30.70;49.20;;;;;;4958746;29;20398;-96
2022/06/18 11:01:35;;;;;;;;;;;30.80;47.50;;;;;;4958321;29;19943;-96
2022/06/18 11:04:03;;;;;;;;;;;31.00;48.50;;;;;;4941786;29;20411;-96
2022/06/18 11:06:30;;;;;;;;;;;31.20;46.40;;;;;;4958059;29;20034;-96
2022/06/18 11:08:57;;;;;;;;;;;31.40;46.00;;;;;;4958354;29;20286;-96
2022/06/18 11:11:27;;;;;;;;;;;31.70;43.20;;;;;;4958049;29;19951;-96
2022/06/18 11:13:52;;;;;;;;;;;31.90;43.30;;;;;;4958275;29;19941;-96
2022/06/18 11:16:18;;;;;;;;;;;32.00;43.50;;;;;;4957955;29;20290;-96
2022/06/18 11:18:44;;;;;;;;;;;32.00;40.70;;;;;;4958356;29;20008;-96
2022/06/18 11:21:12;;;;;;;;;;;32.10;43.50;;;;;;4957875;29;19943;-96
2022/06/18 11:23:38;;;;;;;;;;;32.10;45.30;;;;;;4958321;29;20388;-96
2022/06/18 11:26:10;;;;;;;;;;;32.10;42.80;;;;;;4957749;28;20013;-96
2022/06/18 11:28:36;;;;;;;;;;;31.80;41.70;;;;;;4958274;29;19948;-96
2022/06/18 11:31:04;;;;;;;;;;;31.80;42.70;;;;;;4940462;29;20037;-96
2022/06/18 11:33:56;;;;;;;;;;;32.20;40.40;;;;;;4957919;29;19939;-96
2022/06/18 11:36:31;;;;;;;;;;;32.40;42.30;;;;;;4952804;29;19950;-96
2022/06/18 11:38:57;;;;;;;;;;;32.40;43.00;;;;;;4957990;29;19959;-96
2022/06/18 11:41:26;;;;;;;;;;;32.30;40.40;;;;;;4957770;29;19990;-96
2022/06/18 11:43:55;;;;;;;;;;;32.20;45.10;;;;;;4957714;29;19939;-96
2022/06/18 11:46:23;;;;;;;;;;;32.20;40.70;;;;;;4957453;29;20277;-96
2022/06/18 11:49:07;;;;;;;;;;;32.40;41.00;;;;;;4958156;29;19938;-96
2022/06/18 11:51:36;;;;;;;;;;;32.80;40.50;;;;;;4957276;29;19946;-96
2022/06/18 11:54:16;;;;;;;;;;;32.90;41.50;;;;;;4957164;28;19949;-96
2022/06/18 11:56:44;;;;;;;;;;;33.10;42.30;;;;;;4940222;29;19990;-96
2022/06/18 11:59:15;;;;;;;;;;;33.00;39.20;;;;;;4957602;29;20052;-95
2022/06/18 12:02:00;;;;;;;;;;;33.20;42.80;;;;;;4957140;29;20038;-96
2022/06/18 12:04:31;;;;;;;;;;;33.20;41.30;;;;;;4956033;28;19944;-96
2022/06/18 12:07:04;;;;;;;;;;;33.60;38.80;;;;;;4957277;29;19992;-96
2022/06/18 12:09:30;;;;;;;;;;;33.60;38.60;;;;;;4956963;29;19944;-96
2022/06/18 12:12:05;;;;;;;;;;;32.70;40.00;;;;;;4957206;29;20000;-96
2022/06/18 12:14:54;;;;;;;;;;;32.40;40.50;;;;;;4956854;29;20002;-95
2022/06/18 12:17:19;;;;;;;;;;;32.20;38.70;;;;;;4912208;29;19962;-96
2022/06/18 12:19:51;;;;;;;;;;;32.60;39.40;;;;;;4957057;29;19942;-95
2022/06/18 12:22:36;;;;;;;;;;;32.70;39.20;;;;;;4957034;29;19941;-95
2022/06/18 12:25:08;;;;;;;;;;;33.00;40.20;;;;;;4938735;28;19998;-96
2022/06/18 12:27:37;;;;;;;;;;;33.60;40.10;;;;;;4956946;29;19999;-96
2022/06/18 12:30:12;;;;;;;;;;;33.60;36.50;;;;;;4939371;29;20039;-96
2022/06/18 12:32:43;;;;;;;;;;;34.10;36.90;;;;;;4956837;29;19953;-94
2022/06/18 12:35:11;;;;;;;;;;;34.20;37.20;;;;;;4956475;29;19946;-94
2022/06/18 12:37:42;;;;;;;;;;;34.00;36.40;;;;;;4956940;29;19991;-95
2022/06/18 12:44:10;;;;;;;;;;;33.40;36.50;;;;;;5112431;27;19965;-94
2022/06/18 12:47:36;;;;;;;;;;;34.10;35.30;;;;;;5112354;27;19961;-96
2022/06/18 12:50:04;;;;;;;;;;;34.80;35.10;;;;;;5112179;28;20001;-96
2022/06/18 12:52:30;;;;;;;;;;;35.60;34.70;;;;;;5112180;28;20313;-96
2022/06/18 12:55:09;;;;;;;;;;;36.00;35.10;;;;;;5111810;28;20021;-96
2022/06/18 12:57:35;;;;;;;;;;;36.30;35.90;;;;;;5112019;28;20511;-96
2022/06/18 13:00:03;;;;;;;;;;;36.70;35.10;;;;;;5111637;28;19943;-96
2022/06/18 13:02:47;;;;;;;;;;;36.90;32.70;;;;;;5111936;28;19971;-96
2022/06/18 13:05:15;;;;;;;;;;;37.20;34.60;;;;;;5111899;28;19949;-96
2022/06/18 13:07:46;;;;;;;;;;;37.60;33.30;;;;;;5111813;28;19943;-96
2022/06/18 13:10:21;;;;;;;;;;;37.20;32.80;;;;;;5111502;28;20027;-95
2022/06/18 13:12:49;;;;;;;;;;;36.90;32.20;;;;;;5112000;28;19936;-96
2022/06/18 13:15:28;;;;;;;;;;;37.40;32.40;;;;;;5111539;28;19960;-96
2022/06/18 13:18:16;;;;;;;;;;;38.10;31.30;;;;;;5111598;28;20032;-96
2022/06/18 13:20:43;;;;;;;;;;;38.70;30.90;;;;;;5110177;28;19947;-96
2022/06/18 13:29:04;;;;;;;;;;;40.70;28.10;;;;;;5110225;28;19947;-96
2022/06/18 13:32:05;;;;;;;;;;;41.40;25.70;;;;;;5111729;28;19937;-96
2022/06/18 13:34:54;;;;;;;;;;;41.90;27.10;;;;;;5057018;28;19951;-96
2022/06/18 13:37:23;;;;;;;;;;;42.60;26.80;;;;;;5103885;28;19966;-96
2022/06/18 13:39:55;;;;;;;;;;;41.20;25.10;;;;;;5112013;28;19942;-96
2022/06/18 13:42:24;;;;;;;;;;;40.80;27.30;;;;;;5111196;28;19941;-96
2022/06/18 13:44:55;;;;;;;;;;;40.40;27.20;;;;;;5111538;28;19941;-96
2022/06/18 13:47:21;;;;;;;;;;;40.50;26.80;;;;;;5110584;28;19976;-96
2022/06/18 13:49:55;;;;;;;;;;;40.20;28.70;;;;;;5111287;28;19939;-96
2022/06/18 13:52:21;;;;;;;;;;;39.30;30.50;;;;;;5110735;28;19941;-96
2022/06/18 13:54:49;;;;;;;;;;;39.40;30.50;;;;;;5110620;28;20486;-96
2022/06/18 13:57:16;;;;;;;;;;;39.40;28.30;;;;;;5106055;28;19959;-96
2022/06/18 13:59:59;;;;;;;;;;;39.20;30.20;;;;;;5096947;28;19958;-96
2022/06/18 14:02:28;;;;;;;;;;;38.40;29.30;;;;;;5097175;28;19939;-96
2022/06/18 14:05:07;;;;;;;;;;;38.20;29.90;;;;;;5097418;28;19960;-96
2022/06/18 14:07:34;;;;;;;;;;;38.60;29.70;;;;;;5097042;28;20030;-96
2022/06/18 14:10:01;;;;;;;;;;;39.10;29.20;;;;;;5096728;28;19971;-96
2022/06/18 14:12:29;;;;;;;;;;;39.00;27.80;;;;;;5097222;28;19944;-96
2022/06/18 14:15:19;;;;;;;;;;;39.30;27.80;;;;;;5096778;28;20069;-96
2022/06/18 14:17:48;;;;;;;;;;;39.90;26.40;;;;;;5096862;28;19954;-96
2022/06/18 14:20:22;;;;;;;;;;;39.80;26.90;;;;;;5096498;28;20089;-96
2022/06/18 14:23:06;;;;;;;;;;;40.60;27.60;;;;;;5096771;28;19954;-96
2022/06/18 14:25:43;;;;;;;;;;;40.60;26.10;;;;;;5096617;28;19998;-96
2022/06/18 14:28:18;;;;;;;;;;;42.00;26.60;;;;;;5096945;28;19982;-96
2022/06/18 14:30:45;;;;;;;;;;;42.40;24.00;;;;;;5096298;28;19941;-96
2022/06/18 14:33:17;;;;;;;;;;;42.60;24.50;;;;;;5096873;28;19942;-96
2022/06/18 14:35:42;;;;;;;;;;;43.00;23.20;;;;;;5096135;28;19985;-96
2022/06/18 14:38:09;;;;;;;;;;;43.50;22.70;;;;;;5096739;28;20394;-96
2022/06/18 14:41:34;;;;;;;;;;;43.40;24.00;;;;;;5096121;28;20060;-96
2022/06/18 14:43:32;;;;;;;;;;;43.50;23.30;;;;;;5095951;28;19944;-96
2022/06/18 14:46:13;;;;;;;;;;;43.10;24.00;;;;;;5096010;28;19979;-96
2022/06/18 14:48:42;;;;;;;;;;;42.20;25.80;;;;;;5096259;28;20001;-96
2022/06/18 14:51:07;;;;;;;;;;;42.10;24.70;;;;;;5096200;28;19947;-96
2022/06/18 14:53:33;;;;;;;;;;;41.40;27.00;;;;;;5096121;28;19946;-96